sensor_id;sensor_type;location;lat;lon;timestamp;P1;durP1;ratioP1;P2;durP2;ratioP2
64959;SDS011;51487;52.266;10.542;2023-01-08T00:01:59;5.65;;;2.08;;
64959;SDS011;51487;52.266;10.542;2023-01-08T00:04:25;2.33;;;1.90;;
64959;SDS011;51487;52.266;10.542;2023-01-08T00:06:51;2.85;;;2.00;;
64959;SDS011;51487;52.266;10.542;2023-01-08T00:09:16;3.22;;;2.00;;
64959;SDS011;51487;52.266;10.542;2023-01-08T00:11:42;2.50;;;2.00;;
64959;SDS011;51487;52.266;10.542;2023-01-08T00:14:08;3.78;;;2.20;;
64959;SDS011;51487;52.266;10.542;2023-01-08T00:16:34;2.33;;;2.00;;
64959;SDS011;51487;52.266;10.542;2023-01-08T00:19:00;2.13;;;1.90;;
64959;SDS011;51487;52.266;10.542;2023-01-08T00:21:25;2.42;;;2.00;;
64959;SDS011;51487;52.266;10.542;2023-01-08T00:23:52;2.10;;;1.90;;
64959;SDS011;51487;52.266;10.542;2023-01-08T00:26:17;3.42;;;2.20;;
64959;SDS011;51487;52.266;10.542;2023-01-08T00:28:43;3.63;;;2.30;;
64959;SDS011;51487;52.266;10.542;2023-01-08T00:31:09;3.38;;;2.47;;
64959;SDS011;51487;52.266;10.542;2023-01-08T00:33:36;3.33;;;2.20;;
64959;SDS011;51487;52.266;10.542;2023-01-08T00:36:07;3.00;;;2.38;;
64959;SDS011;51487;52.266;10.542;2023-01-08T00:38:35;3.05;;;2.10;;
64959;SDS011;51487;52.266;10.542;2023-01-08T00:41:01;2.90;;;2.13;;
64959;SDS011;51487;52.266;10.542;2023-01-08T00:43:27;3.63;;;2.30;;
64959;SDS011;51487;52.266;10.542;2023-01-08T00:45:52;2.63;;;2.00;;
64959;SDS011;51487;52.266;10.542;2023-01-08T00:48:18;2.20;;;2.00;;
64959;SDS011;51487;52.266;10.542;2023-01-08T00:50:49;3.55;;;2.10;;
64959;SDS011;51487;52.266;10.542;2023-01-08T00:53:16;2.42;;;2.13;;
64959;SDS011;51487;52.266;10.542;2023-01-08T00:55:43;3.13;;;2.50;;
64959;SDS011;51487;52.266;10.542;2023-01-08T00:58:08;2.92;;;2.30;;
64959;SDS011;51487;52.266;10.542;2023-01-08T01:00:35;3.90;;;2.38;;
64959;SDS011;51487;52.266;10.542;2023-01-08T01:03:00;3.65;;;2.40;;
64959;SDS011;51487;52.266;10.542;2023-01-08T01:05:26;4.13;;;2.40;;
64959;SDS011;51487;52.266;10.542;2023-01-08T01:07:52;2.72;;;2.40;;
64959;SDS011;51487;52.266;10.542;2023-01-08T01:10:17;3.22;;;2.20;;
64959;SDS011;51487;52.266;10.542;2023-01-08T01:12:43;3.17;;;2.40;;
64959;SDS011;51487;52.266;10.542;2023-01-08T01:15:10;2.90;;;2.10;;
64959;SDS011;51487;52.266;10.542;2023-01-08T01:17:40;2.15;;;1.95;;
64959;SDS011;51487;52.266;10.542;2023-01-08T01:20:09;2.33;;;2.08;;
64959;SDS011;51487;52.266;10.542;2023-01-08T01:22:37;3.35;;;2.50;;
64959;SDS011;51487;52.266;10.542;2023-01-08T01:25:03;3.45;;;2.40;;
64959;SDS011;51487;52.266;10.542;2023-01-08T01:27:30;2.22;;;2.00;;
64959;SDS011;51487;52.266;10.542;2023-01-08T01:29:56;3.40;;;2.38;;
64959;SDS011;51487;52.266;10.542;2023-01-08T01:32:22;3.30;;;2.38;;
64959;SDS011;51487;52.266;10.542;2023-01-08T01:34:47;2.88;;;2.40;;
64959;SDS011;51487;52.266;10.542;2023-01-08T01:37:13;3.92;;;2.83;;
64959;SDS011;51487;52.266;10.542;2023-01-08T01:39:40;2.45;;;2.25;;
64959;SDS011;51487;52.266;10.542;2023-01-08T01:42:16;3.58;;;2.25;;
64959;SDS011;51487;52.266;10.542;2023-01-08T01:45:03;2.97;;;2.22;;
64959;SDS011;51487;52.266;10.542;2023-01-08T01:47:46;5.47;;;2.53;;
64959;SDS011;51487;52.266;10.542;2023-01-08T01:50:36;3.08;;;2.28;;
64959;SDS011;51487;52.266;10.542;2023-01-08T01:53:14;3.40;;;2.40;;
64959;SDS011;51487;52.266;10.542;2023-01-08T01:55:59;3.45;;;2.60;;
64959;SDS011;51487;52.266;10.542;2023-01-08T01:58:28;3.70;;;2.50;;
64959;SDS011;51487;52.266;10.542;2023-01-08T02:00:56;3.22;;;2.22;;
64959;SDS011;51487;52.266;10.542;2023-01-08T02:03:28;3.42;;;2.55;;
64959;SDS011;51487;52.266;10.542;2023-01-08T02:11:10;4.28;;;2.58;;
64959;SDS011;51487;52.266;10.542;2023-01-08T02:13:46;3.13;;;2.30;;
64959;SDS011;51487;52.266;10.542;2023-01-08T02:16:34;3.13;;;2.42;;
64959;SDS011;51487;52.266;10.542;2023-01-08T02:28:27;5.32;;;2.25;;
64959;SDS011;51487;52.266;10.542;2023-01-08T02:30:57;2.85;;;2.22;;
64959;SDS011;51487;52.266;10.542;2023-01-08T02:33:26;3.80;;;2.47;;
64959;SDS011;51487;52.266;10.542;2023-01-08T02:35:54;3.83;;;2.70;;
64959;SDS011;51487;52.266;10.542;2023-01-08T02:39:10;4.43;;;3.28;;
64959;SDS011;51487;52.266;10.542;2023-01-08T02:44:50;3.90;;;2.75;;
64959;SDS011;51487;52.266;10.542;2023-01-08T02:53:03;6.90;;;3.17;;
64959;SDS011;51487;52.266;10.542;2023-01-08T02:55:45;3.85;;;2.83;;
64959;SDS011;51487;52.266;10.542;2023-01-08T02:58:20;3.03;;;2.63;;
64959;SDS011;51487;52.266;10.542;2023-01-08T03:00:49;3.38;;;2.60;;
64959;SDS011;51487;52.266;10.542;2023-01-08T03:05:48;3.50;;;2.33;;
64959;SDS011;51487;52.266;10.542;2023-01-08T03:08:22;3.17;;;2.38;;
64959;SDS011;51487;52.266;10.542;2023-01-08T03:10:54;5.35;;;2.85;;
64959;SDS011;51487;52.266;10.542;2023-01-08T03:13:36;3.70;;;2.42;;
64959;SDS011;51487;52.266;10.542;2023-01-08T03:16:09;3.78;;;2.47;;
64959;SDS011;51487;52.266;10.542;2023-01-08T03:18:43;2.47;;;2.28;;
64959;SDS011;51487;52.266;10.542;2023-01-08T03:21:14;4.47;;;2.50;;
64959;SDS011;51487;52.266;10.542;2023-01-08T03:23:43;5.18;;;2.60;;
64959;SDS011;51487;52.266;10.542;2023-01-08T03:26:12;3.95;;;2.53;;
64959;SDS011;51487;52.266;10.542;2023-01-08T03:28:46;3.58;;;2.30;;
64959;SDS011;51487;52.266;10.542;2023-01-08T03:31:18;3.33;;;2.60;;
64959;SDS011;51487;52.266;10.542;2023-01-08T03:33:45;2.85;;;2.55;;
64959;SDS011;51487;52.266;10.542;2023-01-08T03:36:16;5.28;;;2.80;;
64959;SDS011;51487;52.266;10.542;2023-01-08T03:38:52;6.70;;;2.63;;
64959;SDS011;51487;52.266;10.542;2023-01-08T03:41:25;3.78;;;2.50;;
64959;SDS011;51487;52.266;10.542;2023-01-08T03:43:55;4.60;;;2.78;;
64959;SDS011;51487;52.266;10.542;2023-01-08T03:46:31;3.08;;;2.60;;
64959;SDS011;51487;52.266;10.542;2023-01-08T03:49:02;3.67;;;2.30;;
64959;SDS011;51487;52.266;10.542;2023-01-08T03:51:40;3.00;;;2.58;;
64959;SDS011;51487;52.266;10.542;2023-01-08T03:54:08;5.50;;;2.70;;
64959;SDS011;51487;52.266;10.542;2023-01-08T03:56:38;3.88;;;2.92;;
64959;SDS011;51487;52.266;10.542;2023-01-08T03:59:04;5.15;;;2.72;;
64959;SDS011;51487;52.266;10.542;2023-01-08T04:01:29;4.50;;;3.13;;
64959;SDS011;51487;52.266;10.542;2023-01-08T04:03:55;5.70;;;2.85;;
64959;SDS011;51487;52.266;10.542;2023-01-08T04:06:20;3.30;;;2.47;;
64959;SDS011;51487;52.266;10.542;2023-01-08T04:08:46;3.20;;;2.60;;
64959;SDS011;51487;52.266;10.542;2023-01-08T04:11:12;3.08;;;2.40;;
64959;SDS011;51487;52.266;10.542;2023-01-08T04:13:38;3.28;;;2.65;;
64959;SDS011;51487;52.266;10.542;2023-01-08T04:16:03;3.67;;;2.75;;
64959;SDS011;51487;52.266;10.542;2023-01-08T04:18:30;5.18;;;2.80;;
64959;SDS011;51487;52.266;10.542;2023-01-08T04:20:55;4.82;;;2.60;;
64959;SDS011;51487;52.266;10.542;2023-01-08T04:23:21;3.28;;;2.28;;
64959;SDS011;51487;52.266;10.542;2023-01-08T04:25:47;2.75;;;2.42;;
64959;SDS011;51487;52.266;10.542;2023-01-08T04:28:12;3.63;;;2.40;;
64959;SDS011;51487;52.266;10.542;2023-01-08T04:30:37;2.25;;;2.05;;
64959;SDS011;51487;52.266;10.542;2023-01-08T04:33:03;3.15;;;2.60;;
64959;SDS011;51487;52.266;10.542;2023-01-08T04:35:28;4.20;;;2.60;;
64959;SDS011;51487;52.266;10.542;2023-01-08T04:37:54;3.90;;;2.30;;
64959;SDS011;51487;52.266;10.542;2023-01-08T04:40:19;4.72;;;2.50;;
64959;SDS011;51487;52.266;10.542;2023-01-08T04:42:45;4.05;;;2.50;;
64959;SDS011;51487;52.266;10.542;2023-01-08T04:45:10;6.97;;;2.75;;
64959;SDS011;51487;52.266;10.542;2023-01-08T04:47:36;2.63;;;2.30;;
64959;SDS011;51487;52.266;10.542;2023-01-08T04:50:02;4.50;;;2.90;;
64959;SDS011;51487;52.266;10.542;2023-01-08T04:52:28;3.78;;;2.63;;
64959;SDS011;51487;52.266;10.542;2023-01-08T04:54:53;3.58;;;2.33;;
64959;SDS011;51487;52.266;10.542;2023-01-08T04:57:19;2.85;;;2.22;;
64959;SDS011;51487;52.266;10.542;2023-01-08T04:59:44;2.70;;;2.40;;
64959;SDS011;51487;52.266;10.542;2023-01-08T05:02:10;4.25;;;2.60;;
64959;SDS011;51487;52.266;10.542;2023-01-08T05:04:35;4.68;;;2.63;;
64959;SDS011;51487;52.266;10.542;2023-01-08T05:07:02;5.35;;;2.50;;
64959;SDS011;51487;52.266;10.542;2023-01-08T05:09:28;5.70;;;2.45;;
64959;SDS011;51487;52.266;10.542;2023-01-08T05:11:54;4.28;;;2.58;;
64959;SDS011;51487;52.266;10.542;2023-01-08T05:14:19;2.92;;;2.40;;
64959;SDS011;51487;52.266;10.542;2023-01-08T05:16:45;2.70;;;2.20;;
64959;SDS011;51487;52.266;10.542;2023-01-08T05:19:11;2.55;;;2.20;;
64959;SDS011;51487;52.266;10.542;2023-01-08T05:21:37;3.13;;;2.00;;
64959;SDS011;51487;52.266;10.542;2023-01-08T05:24:03;3.00;;;2.08;;
64959;SDS011;51487;52.266;10.542;2023-01-08T05:26:28;2.83;;;2.35;;
64959;SDS011;51487;52.266;10.542;2023-01-08T05:28:54;2.97;;;2.30;;
64959;SDS011;51487;52.266;10.542;2023-01-08T05:31:19;3.65;;;2.20;;
64959;SDS011;51487;52.266;10.542;2023-01-08T05:33:45;2.65;;;2.10;;
64959;SDS011;51487;52.266;10.542;2023-01-08T05:36:11;2.67;;;2.00;;
64959;SDS011;51487;52.266;10.542;2023-01-08T05:38:37;2.22;;;2.03;;
64959;SDS011;51487;52.266;10.542;2023-01-08T05:41:04;2.90;;;2.15;;
64959;SDS011;51487;52.266;10.542;2023-01-08T05:43:31;3.13;;;2.40;;
64959;SDS011;51487;52.266;10.542;2023-01-08T05:45:59;3.78;;;2.42;;
64959;SDS011;51487;52.266;10.542;2023-01-08T05:48:27;3.63;;;2.42;;
64959;SDS011;51487;52.266;10.542;2023-01-08T05:50:54;2.95;;;2.22;;
64959;SDS011;51487;52.266;10.542;2023-01-08T05:53:20;3.38;;;2.40;;
64959;SDS011;51487;52.266;10.542;2023-01-08T05:55:45;5.45;;;2.88;;
64959;SDS011;51487;52.266;10.542;2023-01-08T05:58:11;7.07;;;3.00;;
64959;SDS011;51487;52.266;10.542;2023-01-08T06:00:37;3.95;;;2.65;;
64959;SDS011;51487;52.266;10.542;2023-01-08T06:03:03;4.95;;;2.70;;
64959;SDS011;51487;52.266;10.542;2023-01-08T06:05:30;3.50;;;2.40;;
64959;SDS011;51487;52.266;10.542;2023-01-08T06:07:57;3.10;;;2.58;;
64959;SDS011;51487;52.266;10.542;2023-01-08T06:10:24;3.60;;;2.50;;
64959;SDS011;51487;52.266;10.542;2023-01-08T06:12:50;4.07;;;2.50;;
64959;SDS011;51487;52.266;10.542;2023-01-08T06:15:16;3.85;;;2.70;;
64959;SDS011;51487;52.266;10.542;2023-01-08T06:17:42;4.22;;;2.70;;
64959;SDS011;51487;52.266;10.542;2023-01-08T06:20:08;3.85;;;2.30;;
64959;SDS011;51487;52.266;10.542;2023-01-08T06:22:34;2.72;;;2.20;;
64959;SDS011;51487;52.266;10.542;2023-01-08T06:25:00;3.83;;;2.20;;
64959;SDS011;51487;52.266;10.542;2023-01-08T06:27:27;2.30;;;2.10;;
64959;SDS011;51487;52.266;10.542;2023-01-08T06:29:53;2.78;;;1.98;;
64959;SDS011;51487;52.266;10.542;2023-01-08T06:32:19;2.50;;;2.08;;
64959;SDS011;51487;52.266;10.542;2023-01-08T06:34:45;3.00;;;2.35;;
64959;SDS011;51487;52.266;10.542;2023-01-08T06:37:10;3.30;;;2.22;;
64959;SDS011;51487;52.266;10.542;2023-01-08T06:39:36;2.38;;;2.00;;
64959;SDS011;51487;52.266;10.542;2023-01-08T06:42:01;2.40;;;2.20;;
64959;SDS011;51487;52.266;10.542;2023-01-08T06:44:27;3.50;;;2.10;;
64959;SDS011;51487;52.266;10.542;2023-01-08T06:46:52;3.75;;;2.40;;
64959;SDS011;51487;52.266;10.542;2023-01-08T06:49:18;2.58;;;2.13;;
64959;SDS011;51487;52.266;10.542;2023-01-08T06:51:44;3.60;;;2.00;;
64959;SDS011;51487;52.266;10.542;2023-01-08T06:54:10;3.17;;;2.13;;
64959;SDS011;51487;52.266;10.542;2023-01-08T06:56:35;2.83;;;2.10;;
64959;SDS011;51487;52.266;10.542;2023-01-08T06:59:01;2.88;;;2.20;;
64959;SDS011;51487;52.266;10.542;2023-01-08T07:01:26;2.97;;;2.08;;
64959;SDS011;51487;52.266;10.542;2023-01-08T07:03:52;3.33;;;2.13;;
64959;SDS011;51487;52.266;10.542;2023-01-08T07:06:18;2.83;;;2.25;;
64959;SDS011;51487;52.266;10.542;2023-01-08T07:08:45;4.82;;;2.00;;
64959;SDS011;51487;52.266;10.542;2023-01-08T07:11:12;2.30;;;2.10;;
64959;SDS011;51487;52.266;10.542;2023-01-08T07:13:38;3.33;;;2.00;;
64959;SDS011;51487;52.266;10.542;2023-01-08T07:16:05;2.47;;;2.28;;
64959;SDS011;51487;52.266;10.542;2023-01-08T07:18:32;3.58;;;2.25;;
64959;SDS011;51487;52.266;10.542;2023-01-08T07:20:57;2.75;;;2.30;;
64959;SDS011;51487;52.266;10.542;2023-01-08T07:23:23;8.50;;;2.50;;
64959;SDS011;51487;52.266;10.542;2023-01-08T07:25:49;2.85;;;2.08;;
64959;SDS011;51487;52.266;10.542;2023-01-08T07:28:14;2.47;;;2.20;;
64959;SDS011;51487;52.266;10.542;2023-01-08T07:30:40;3.05;;;2.22;;
64959;SDS011;51487;52.266;10.542;2023-01-08T07:33:05;3.25;;;2.70;;
64959;SDS011;51487;52.266;10.542;2023-01-08T07:35:31;3.97;;;2.47;;
64959;SDS011;51487;52.266;10.542;2023-01-08T07:37:56;4.32;;;2.60;;
64959;SDS011;51487;52.266;10.542;2023-01-08T07:40:22;3.90;;;2.85;;
64959;SDS011;51487;52.266;10.542;2023-01-08T07:42:47;3.13;;;2.42;;
64959;SDS011;51487;52.266;10.542;2023-01-08T07:45:21;4.15;;;2.50;;
64959;SDS011;51487;52.266;10.542;2023-01-08T07:47:47;3.35;;;2.63;;
64959;SDS011;51487;52.266;10.542;2023-01-08T07:50:12;3.15;;;2.60;;
64959;SDS011;51487;52.266;10.542;2023-01-08T07:52:38;3.50;;;2.38;;
64959;SDS011;51487;52.266;10.542;2023-01-08T07:55:03;3.50;;;2.55;;
64959;SDS011;51487;52.266;10.542;2023-01-08T07:57:29;4.13;;;2.70;;
64959;SDS011;51487;52.266;10.542;2023-01-08T07:59:55;3.50;;;2.78;;
64959;SDS011;51487;52.266;10.542;2023-01-08T08:02:20;3.70;;;2.50;;
64959;SDS011;51487;52.266;10.542;2023-01-08T08:04:45;4.05;;;2.55;;
64959;SDS011;51487;52.266;10.542;2023-01-08T08:07:11;4.25;;;2.83;;
64959;SDS011;51487;52.266;10.542;2023-01-08T08:09:36;4.35;;;2.75;;
64959;SDS011;51487;52.266;10.542;2023-01-08T08:12:02;3.45;;;2.60;;
64959;SDS011;51487;52.266;10.542;2023-01-08T08:14:28;3.85;;;2.67;;
64959;SDS011;51487;52.266;10.542;2023-01-08T08:16:53;3.58;;;2.60;;
64959;SDS011;51487;52.266;10.542;2023-01-08T08:19:19;4.07;;;2.90;;
64959;SDS011;51487;52.266;10.542;2023-01-08T08:21:44;3.67;;;2.88;;
64959;SDS011;51487;52.266;10.542;2023-01-08T08:24:10;3.63;;;2.78;;
64959;SDS011;51487;52.266;10.542;2023-01-08T08:26:36;5.35;;;2.90;;
64959;SDS011;51487;52.266;10.542;2023-01-08T08:29:01;3.17;;;2.50;;
64959;SDS011;51487;52.266;10.542;2023-01-08T08:31:27;2.83;;;2.40;;
64959;SDS011;51487;52.266;10.542;2023-01-08T08:33:53;3.30;;;2.58;;
64959;SDS011;51487;52.266;10.542;2023-01-08T08:36:18;3.00;;;2.55;;
64959;SDS011;51487;52.266;10.542;2023-01-08T08:38:44;3.45;;;2.80;;
64959;SDS011;51487;52.266;10.542;2023-01-08T08:41:09;3.40;;;2.67;;
64959;SDS011;51487;52.266;10.542;2023-01-08T08:43:35;3.90;;;2.90;;
64959;SDS011;51487;52.266;10.542;2023-01-08T08:46:00;5.30;;;3.50;;
64959;SDS011;51487;52.266;10.542;2023-01-08T08:48:26;5.10;;;3.22;;
64959;SDS011;51487;52.266;10.542;2023-01-08T08:50:51;3.13;;;2.80;;
64959;SDS011;51487;52.266;10.542;2023-01-08T08:53:17;7.03;;;3.08;;
64959;SDS011;51487;52.266;10.542;2023-01-08T08:55:42;5.63;;;3.10;;
64959;SDS011;51487;52.266;10.542;2023-01-08T08:58:09;5.45;;;2.65;;
64959;SDS011;51487;52.266;10.542;2023-01-08T09:00:40;4.57;;;2.97;;
64959;SDS011;51487;52.266;10.542;2023-01-08T09:03:14;5.38;;;3.58;;
64959;SDS011;51487;52.266;10.542;2023-01-08T09:08:09;6.68;;;3.10;;
64959;SDS011;51487;52.266;10.542;2023-01-08T09:10:36;7.63;;;3.95;;
64959;SDS011;51487;52.266;10.542;2023-01-08T09:13:06;3.95;;;2.88;;
64959;SDS011;51487;52.266;10.542;2023-01-08T09:15:31;4.75;;;2.70;;
64959;SDS011;51487;52.266;10.542;2023-01-08T09:17:57;2.45;;;2.00;;
64959;SDS011;51487;52.266;10.542;2023-01-08T09:20:23;2.97;;;2.40;;
64959;SDS011;51487;52.266;10.542;2023-01-08T09:22:50;4.63;;;2.80;;
64959;SDS011;51487;52.266;10.542;2023-01-08T09:25:16;2.42;;;2.15;;
64959;SDS011;51487;52.266;10.542;2023-01-08T09:27:42;2.70;;;2.10;;
64959;SDS011;51487;52.266;10.542;2023-01-08T09:30:08;2.58;;;2.17;;
64959;SDS011;51487;52.266;10.542;2023-01-08T09:32:35;2.95;;;2.25;;
64959;SDS011;51487;52.266;10.542;2023-01-08T09:35:02;2.85;;;2.15;;
64959;SDS011;51487;52.266;10.542;2023-01-08T09:37:29;2.88;;;2.20;;
64959;SDS011;51487;52.266;10.542;2023-01-08T09:39:54;2.47;;;1.92;;
64959;SDS011;51487;52.266;10.542;2023-01-08T09:42:20;2.40;;;2.00;;
64959;SDS011;51487;52.266;10.542;2023-01-08T09:44:51;3.30;;;1.95;;
64959;SDS011;51487;52.266;10.542;2023-01-08T09:47:25;2.65;;;2.08;;
64959;SDS011;51487;52.266;10.542;2023-01-08T09:50:03;2.70;;;2.13;;
64959;SDS011;51487;52.266;10.542;2023-01-08T09:52:35;2.85;;;1.83;;
64959;SDS011;51487;52.266;10.542;2023-01-08T09:55:02;2.60;;;2.03;;
64959;SDS011;51487;52.266;10.542;2023-01-08T09:57:37;2.42;;;1.77;;
64959;SDS011;51487;52.266;10.542;2023-01-08T10:00:03;2.42;;;1.92;;
64959;SDS011;51487;52.266;10.542;2023-01-08T10:02:54;2.35;;;1.88;;
64959;SDS011;51487;52.266;10.542;2023-01-08T10:05:21;1.73;;;1.63;;
64959;SDS011;51487;52.266;10.542;2023-01-08T10:07:50;2.90;;;1.67;;
64959;SDS011;51487;52.266;10.542;2023-01-08T10:10:23;1.83;;;1.67;;
64959;SDS011;51487;52.266;10.542;2023-01-08T10:12:53;1.95;;;1.65;;
64959;SDS011;51487;52.266;10.542;2023-01-08T10:15:20;1.70;;;1.60;;
64959;SDS011;51487;52.266;10.542;2023-01-08T10:18:03;1.70;;;1.45;;
64959;SDS011;51487;52.266;10.542;2023-01-08T10:20:36;2.00;;;1.88;;
64959;SDS011;51487;52.266;10.542;2023-01-08T10:25:53;2.47;;;1.70;;
64959;SDS011;51487;52.266;10.542;2023-01-08T10:28:28;1.95;;;1.63;;
64959;SDS011;51487;52.266;10.542;2023-01-08T10:31:10;1.70;;;1.60;;
64959;SDS011;51487;52.266;10.542;2023-01-08T10:33:41;2.80;;;2.10;;
64959;SDS011;51487;52.266;10.542;2023-01-08T10:38:53;1.25;;;1.23;;
64959;SDS011;51487;52.266;10.542;2023-01-08T10:41:24;2.47;;;1.58;;
64959;SDS011;51487;52.266;10.542;2023-01-08T10:46:30;1.65;;;1.50;;
64959;SDS011;51487;52.266;10.542;2023-01-08T10:49:06;1.40;;;1.30;;
64959;SDS011;51487;52.266;10.542;2023-01-08T10:51:55;1.50;;;1.38;;
64959;SDS011;51487;52.266;10.542;2023-01-08T10:54:27;1.38;;;1.27;;
64959;SDS011;51487;52.266;10.542;2023-01-08T10:57:00;1.60;;;1.50;;
64959;SDS011;51487;52.266;10.542;2023-01-08T10:59:27;1.40;;;1.30;;
64959;SDS011;51487;52.266;10.542;2023-01-08T11:01:54;1.63;;;1.30;;
64959;SDS011;51487;52.266;10.542;2023-01-08T11:06:56;1.20;;;1.20;;
64959;SDS011;51487;52.266;10.542;2023-01-08T11:09:27;1.20;;;1.10;;
64959;SDS011;51487;52.266;10.542;2023-01-08T11:11:57;1.30;;;1.20;;
64959;SDS011;51487;52.266;10.542;2023-01-08T11:16:59;1.50;;;1.40;;
64959;SDS011;51487;52.266;10.542;2023-01-08T11:19:32;1.52;;;1.33;;
64959;SDS011;51487;52.266;10.542;2023-01-08T11:21:59;1.30;;;1.20;;
64959;SDS011;51487;52.266;10.542;2023-01-08T11:24:46;1.75;;;1.30;;
64959;SDS011;51487;52.266;10.542;2023-01-08T11:27:22;1.77;;;1.40;;
64959;SDS011;51487;52.266;10.542;2023-01-08T11:35:18;1.60;;;1.40;;
64959;SDS011;51487;52.266;10.542;2023-01-08T11:38:03;1.35;;;1.25;;
64959;SDS011;51487;52.266;10.542;2023-01-08T11:40:52;1.20;;;1.10;;
64959;SDS011;51487;52.266;10.542;2023-01-08T11:52:06;2.55;;;1.67;;
64959;SDS011;51487;52.266;10.542;2023-01-08T11:55:15;1.60;;;1.40;;
64959;SDS011;51487;52.266;10.542;2023-01-08T12:03:19;1.58;;;1.48;;
64959;SDS011;51487;52.266;10.542;2023-01-08T12:11:50;1.50;;;1.40;;
64959;SDS011;51487;52.266;10.542;2023-01-08T12:15:03;1.50;;;1.40;;
64959;SDS011;51487;52.266;10.542;2023-01-08T12:32:37;1.53;;;1.43;;
64959;SDS011;51487;52.266;10.542;2023-01-08T12:35:24;1.95;;;1.58;;
64959;SDS011;51487;52.266;10.542;2023-01-08T12:40:48;1.58;;;1.48;;
64959;SDS011;51487;52.266;10.542;2023-01-08T12:43:21;1.65;;;1.30;;
64959;SDS011;51487;52.266;10.542;2023-01-08T12:45:55;1.13;;;1.13;;
64959;SDS011;51487;52.266;10.542;2023-01-08T12:48:32;1.40;;;1.30;;
64959;SDS011;51487;52.266;10.542;2023-01-08T12:56:40;3.75;;;1.60;;
64959;SDS011;51487;52.266;10.542;2023-01-08T12:59:17;2.00;;;1.60;;
64959;SDS011;51487;52.266;10.542;2023-01-08T13:04:44;1.40;;;1.30;;
64959;SDS011;51487;52.266;10.542;2023-01-08T13:07:15;1.42;;;1.33;;
64959;SDS011;51487;52.266;10.542;2023-01-08T13:09:44;1.48;;;1.38;;
64959;SDS011;51487;52.266;10.542;2023-01-08T13:12:17;1.73;;;1.35;;
64959;SDS011;51487;52.266;10.542;2023-01-08T13:15:00;2.78;;;1.30;;
64959;SDS011;51487;52.266;10.542;2023-01-08T13:17:26;1.40;;;1.30;;
64959;SDS011;51487;52.266;10.542;2023-01-08T13:19:54;1.50;;;1.40;;
64959;SDS011;51487;52.266;10.542;2023-01-08T13:22:26;2.65;;;1.40;;
64959;SDS011;51487;52.266;10.542;2023-01-08T13:29:04;3.08;;;1.75;;
64959;SDS011;51487;52.266;10.542;2023-01-08T13:33:51;2.47;;;1.55;;
64959;SDS011;51487;52.266;10.542;2023-01-08T13:38:45;1.70;;;1.50;;
64959;SDS011;51487;52.266;10.542;2023-01-08T13:41:24;1.83;;;1.65;;
64959;SDS011;51487;52.266;10.542;2023-01-08T13:43:59;1.50;;;1.40;;
64959;SDS011;51487;52.266;10.542;2023-01-08T13:46:29;1.42;;;1.33;;
64959;SDS011;51487;52.266;10.542;2023-01-08T13:51:30;1.85;;;1.55;;
64959;SDS011;51487;52.266;10.542;2023-01-08T13:54:15;2.40;;;1.60;;
64959;SDS011;51487;52.266;10.542;2023-01-08T13:56:46;2.30;;;1.98;;
64959;SDS011;51487;52.266;10.542;2023-01-08T13:59:19;2.25;;;1.90;;
64959;SDS011;51487;52.266;10.542;2023-01-08T14:02:00;3.15;;;2.00;;
64959;SDS011;51487;52.266;10.542;2023-01-08T14:04:26;3.33;;;2.33;;
64959;SDS011;51487;52.266;10.542;2023-01-08T14:06:51;5.07;;;2.70;;
64959;SDS011;51487;52.266;10.542;2023-01-08T14:09:21;2.58;;;1.50;;
64959;SDS011;51487;52.266;10.542;2023-01-08T14:11:50;5.38;;;2.17;;
64959;SDS011;51487;52.266;10.542;2023-01-08T14:14:21;1.75;;;1.60;;
64959;SDS011;51487;52.266;10.542;2023-01-08T14:16:48;1.60;;;1.50;;
64959;SDS011;51487;52.266;10.542;2023-01-08T14:19:17;1.70;;;1.50;;
64959;SDS011;51487;52.266;10.542;2023-01-08T14:21:48;2.22;;;1.50;;
64959;SDS011;51487;52.266;10.542;2023-01-08T14:24:21;2.25;;;1.50;;
64959;SDS011;51487;52.266;10.542;2023-01-08T14:26:58;2.05;;;1.40;;
64959;SDS011;51487;52.266;10.542;2023-01-08T14:29:25;1.83;;;1.50;;
64959;SDS011;51487;52.266;10.542;2023-01-08T14:31:55;2.38;;;1.25;;
64959;SDS011;51487;52.266;10.542;2023-01-08T14:34:24;2.05;;;1.45;;
64959;SDS011;51487;52.266;10.542;2023-01-08T14:36:54;1.65;;;1.40;;
64959;SDS011;51487;52.266;10.542;2023-01-08T14:39:24;1.88;;;1.50;;
64959;SDS011;51487;52.266;10.542;2023-01-08T14:44:57;1.88;;;1.45;;
64959;SDS011;51487;52.266;10.542;2023-01-08T14:47:37;2.45;;;1.67;;
64959;SDS011;51487;52.266;10.542;2023-01-08T14:52:56;2.10;;;1.90;;
64959;SDS011;51487;52.266;10.542;2023-01-08T14:55:49;2.45;;;1.85;;
64959;SDS011;51487;52.266;10.542;2023-01-08T14:58:19;1.58;;;1.48;;
64959;SDS011;51487;52.266;10.542;2023-01-08T15:00:58;1.60;;;1.50;;
64959;SDS011;51487;52.266;10.542;2023-01-08T15:03:36;2.38;;;1.73;;
64959;SDS011;51487;52.266;10.542;2023-01-08T15:06:07;2.58;;;1.50;;
64959;SDS011;51487;52.266;10.542;2023-01-08T15:08:42;1.67;;;1.58;;
64959;SDS011;51487;52.266;10.542;2023-01-08T15:13:46;2.55;;;1.75;;
64959;SDS011;51487;52.266;10.542;2023-01-08T15:19:04;2.42;;;1.88;;
64959;SDS011;51487;52.266;10.542;2023-01-08T15:21:46;1.83;;;1.50;;
64959;SDS011;51487;52.266;10.542;2023-01-08T15:24:21;2.65;;;1.40;;
64959;SDS011;51487;52.266;10.542;2023-01-08T15:26:49;1.27;;;1.25;;
64959;SDS011;51487;52.266;10.542;2023-01-08T15:29:17;2.10;;;1.50;;
64959;SDS011;51487;52.266;10.542;2023-01-08T15:31:48;2.13;;;1.48;;
64959;SDS011;51487;52.266;10.542;2023-01-08T15:34:15;3.17;;;1.60;;
64959;SDS011;51487;52.266;10.542;2023-01-08T15:36:44;2.20;;;1.40;;
64959;SDS011;51487;52.266;10.542;2023-01-08T15:39:11;2.17;;;1.60;;
64959;SDS011;51487;52.266;10.542;2023-01-08T15:41:37;1.67;;;1.58;;
64959;SDS011;51487;52.266;10.542;2023-01-08T15:44:23;1.92;;;1.60;;
64959;SDS011;51487;52.266;10.542;2023-01-08T15:46:50;1.88;;;1.58;;
64959;SDS011;51487;52.266;10.542;2023-01-08T15:49:16;1.58;;;1.48;;
64959;SDS011;51487;52.266;10.542;2023-01-08T15:51:48;1.50;;;1.40;;
64959;SDS011;51487;52.266;10.542;2023-01-08T15:54:23;3.65;;;1.73;;
64959;SDS011;51487;52.266;10.542;2023-01-08T15:56:49;1.83;;;1.35;;
64959;SDS011;51487;52.266;10.542;2023-01-08T15:59:15;3.35;;;1.83;;
64959;SDS011;51487;52.266;10.542;2023-01-08T16:01:40;3.00;;;1.88;;
64959;SDS011;51487;52.266;10.542;2023-01-08T16:04:06;2.15;;;1.70;;
64959;SDS011;51487;52.266;10.542;2023-01-08T16:06:32;2.80;;;1.77;;
64959;SDS011;51487;52.266;10.542;2023-01-08T16:09:00;2.75;;;2.20;;
64959;SDS011;51487;52.266;10.542;2023-01-08T16:11:26;3.05;;;2.20;;
64959;SDS011;51487;52.266;10.542;2023-01-08T16:13:51;4.78;;;2.40;;
64959;SDS011;51487;52.266;10.542;2023-01-08T16:16:17;2.97;;;2.38;;
64959;SDS011;51487;52.266;10.542;2023-01-08T16:18:44;4.35;;;2.30;;
64959;SDS011;51487;52.266;10.542;2023-01-08T16:21:11;3.55;;;2.50;;
64959;SDS011;51487;52.266;10.542;2023-01-08T16:23:37;2.90;;;2.10;;
64959;SDS011;51487;52.266;10.542;2023-01-08T16:26:05;2.40;;;1.80;;
64959;SDS011;51487;52.266;10.542;2023-01-08T16:28:33;1.98;;;1.77;;
64959;SDS011;51487;52.266;10.542;2023-01-08T16:30:59;1.90;;;1.70;;
64959;SDS011;51487;52.266;10.542;2023-01-08T16:33:25;2.22;;;1.80;;
64959;SDS011;51487;52.266;10.542;2023-01-08T16:35:54;1.60;;;1.50;;
64959;SDS011;51487;52.266;10.542;2023-01-08T16:38:32;1.85;;;1.63;;
64959;SDS011;51487;52.266;10.542;2023-01-08T16:40:59;1.92;;;1.73;;
64959;SDS011;51487;52.266;10.542;2023-01-08T16:43:26;4.70;;;1.60;;